This is the latest recevied weather packets stored in our database for station/object DL9TPA-1. If no packets are shown the sender has not sent any weather packets the latest 10 day(s).
| Time | Temp. | Humidity | Pressure | Rain* | Wind** | Luminosity | Snow |
|---|---|---|---|---|---|---|---|
| 1778016638 | 12.22° C | 96% | 1005.8 hPa | 0 mm | - | - | - |
| 1778016035 | 12.22° C | 95% | 1006 hPa | 2.54 mm | - | - | - |
| 1778015434 | 12.22° C | 95% | 1006.4 hPa | 3.05 mm | - | - | - |
| 1778014833 | 12.22° C | 94% | 1006.5 hPa | 3.81 mm | - | - | - |
| 1778014229 | 12.78° C | 94% | 1006.6 hPa | 4.06 mm | - | - | - |
| 1778013629 | 12.78° C | 94% | 1006.6 hPa | 4.06 mm | - | - | - |
| 1778013027 | 12.78° C | 92% | 1006.5 hPa | 4.06 mm | - | - | - |
| 1778012425 | 13.33° C | 93% | 1006 hPa | 1.52 mm | - | - | - |
| 1778011820 | 13.33° C | 93% | 1005.3 hPa | 1.02 mm | - | - | - |
| 1778011219 | 13.33° C | 92% | 1004.6 hPa | 0.25 mm | - | - | - |
| 1778010616 | 13.89° C | 92% | 1004.8 hPa | 0 mm | - | - | - |
| 1778010017 | 13.89° C | 92% | 1004.8 hPa | 0.25 mm | - | - | - |
| 1778009415 | 13.89° C | 92% | 1004.6 hPa | 0.76 mm | - | - | - |
| 1778008813 | 13.89° C | 92% | 1004.3 hPa | 1.02 mm | - | - | - |
| 1778008229 | 13.89° C | 92% | 1004.6 hPa | 1.78 mm | - | - | - |
| 1778007608 | 13.89° C | 91% | 1004.7 hPa | 2.03 mm | - | - | - |
| 1778007005 | 14.44° C | 91% | 1004.7 hPa | 2.03 mm | - | - | - |
| 1778006102 | 14.44° C | 89% | 1004.9 hPa | 1.52 mm | - | - | - |
| 1778005500 | 15° C | 89% | 1005 hPa | 1.02 mm | - | - | - |
| 1778004897 | 15° C | 87% | 1005.1 hPa | 0.51 mm | - | - | - |
| 1778004297 | 15° C | 87% | 1004.8 hPa | 0.25 mm | - | - | - |
| 1778003695 | 15.56° C | 86% | 1004.7 hPa | 0.25 mm | - | - | - |
| 1778003093 | 15.56° C | 86% | 1004.7 hPa | 0.25 mm | - | - | - |
| 1778002490 | 15.56° C | 85% | 1004.4 hPa | 0.25 mm | - | - | - |
| 1778001890 | 16.67° C | 83% | 1004.7 hPa | 0.25 mm | - | - | - |
* Rain latest hour (hover to see other rain measurements)
** Current wind speed in m/s (hover to see current wind gust speed)